Time;durP1;ratioP1;P1;durP2;ratioP2;P2;SDS_P1;SDS_P2;PMS_P1;PMS_P2;Temp;Humidity;BMP_temperature;BMP_pressure;BME280_temperature;BME280_humidity;BME280_pressure;Samples;Min_cycle;Max_cycle;Signal;HPM_P1;HPM_P2
2022/07/27 00:01:39;;;;;;;14.65;9.08;;;;;;;16.09;86.10;99925.72;1708282;84;25518;-72
2022/07/27 00:04:05;;;;;;;12.50;9.23;;;;;;;16.05;86.15;99921.52;1708041;84;25626;-70
2022/07/27 00:06:32;;;;;;;11.43;9.45;;;;;;;16.03;86.46;99922.45;1707480;84;25449;-70
2022/07/27 00:08:59;;;;;;;12.35;9.78;;;;;;;16.00;86.06;99920.44;1707447;83;27327;-70
2022/07/27 00:11:25;;;;;;;10.72;9.28;;;;;;;15.97;86.32;99922.53;1707366;83;25562;-70
2022/07/27 00:13:51;;;;;;;11.00;9.63;;;;;;;15.95;86.41;99924.02;1707418;84;25630;-70
2022/07/27 00:16:17;;;;;;;11.97;9.30;;;;;;;15.90;86.54;99927.80;1707415;83;25568;-70
2022/07/27 00:18:43;;;;;;;10.30;9.03;;;;;;;15.89;86.33;99927.59;1707442;83;25405;-70
2022/07/27 00:21:09;;;;;;;10.43;9.33;;;;;;;15.87;86.42;99923.07;1707454;83;27883;-70
2022/07/27 00:23:36;;;;;;;11.88;9.48;;;;;;;15.85;86.72;99919.33;1707349;84;25452;-70
2022/07/27 00:26:02;;;;;;;14.45;9.70;;;;;;;15.81;86.65;99930.70;1705531;84;25403;-70
2022/07/27 00:28:28;;;;;;;10.82;9.75;;;;;;;15.80;87.05;99925.60;1702354;84;26371;-70
2022/07/27 00:30:54;;;;;;;14.60;10.80;;;;;;;15.79;87.23;99928.12;1702434;84;25407;-70
2022/07/27 00:33:20;;;;;;;11.65;9.90;;;;;;;15.78;87.32;99928.71;1702408;83;28082;-70
2022/07/27 00:35:46;;;;;;;13.85;11.68;;;;;;;15.77;87.36;99931.78;1702294;84;25612;-70
2022/07/27 00:38:13;;;;;;;13.53;11.05;;;;;;;15.76;87.50;99930.19;1702356;84;25598;-70
2022/07/27 00:40:39;;;;;;;12.63;9.48;;;;;;;15.75;87.66;99927.20;1702364;83;25637;-70
2022/07/27 00:43:05;;;;;;;10.48;9.35;;;;;;;15.76;87.97;99932.92;1702402;84;25565;-70
2022/07/27 00:45:31;;;;;;;13.22;9.43;;;;;;;15.76;87.88;99939.73;1702427;83;27911;-70
2022/07/27 00:47:58;;;;;;;15.65;10.25;;;;;;;15.75;87.92;99941.68;1681940;84;25594;-70
2022/07/27 00:50:24;;;;;;;20.72;10.93;;;;;;;15.76;88.05;99939.73;1702378;84;25393;-70
2022/07/27 00:52:51;;;;;;;12.98;10.68;;;;;;;15.76;88.12;99947.91;1682286;84;26268;-70
2022/07/27 00:55:17;;;;;;;12.82;9.08;;;;;;;15.75;88.23;99949.86;1702407;84;25617;-70
2022/07/27 00:57:44;;;;;;;10.70;9.65;;;;;;;15.75;88.11;99953.95;1702364;84;27326;-70
2022/07/27 01:00:11;;;;;;;12.47;10.48;;;;;;;15.74;88.18;99954.27;1702310;84;25675;-72
2022/07/27 01:02:37;;;;;;;16.27;9.90;;;;;;;15.72;88.12;99958.70;1702365;84;25433;-69
2022/07/27 01:05:06;;;;;;;13.43;9.93;;;;;;;15.72;88.12;99956.56;1702345;84;25703;-70
2022/07/27 01:07:32;;;;;;;17.90;10.13;;;;;;;15.73;88.50;99955.40;1702430;83;25474;-70
2022/07/27 01:09:59;;;;;;;14.80;11.88;;;;;;;15.74;88.57;99962.45;1702357;84;27337;-70
2022/07/27 01:12:29;;;;;;;18.45;13.35;;;;;;;15.75;88.77;99959.92;1702280;84;25629;-70
2022/07/27 01:14:57;;;;;;;16.82;13.18;;;;;;;15.77;89.17;99966.66;1702377;83;25566;-70
2022/07/27 01:17:26;;;;;;;15.83;11.70;;;;;;;15.80;89.61;99965.95;1700051;84;25701;-70
2022/07/27 01:19:53;;;;;;;17.27;11.70;;;;;;;15.82;89.84;99971.84;1700332;84;25636;-70
2022/07/27 01:22:20;;;;;;;15.53;11.97;;;;;;;15.85;90.22;99973.88;1701368;84;27283;-70
2022/07/27 01:24:49;;;;;;;14.05;11.25;;;;;;;15.89;90.34;99966.36;1702249;84;25691;-70
2022/07/27 01:27:15;;;;;;;16.53;12.27;;;;;;;15.93;90.75;99960.41;1706247;84;25401;-70
2022/07/27 01:29:42;;;;;;;16.65;10.78;;;;;;;15.97;90.96;99968.09;1707414;84;25622;-70
2022/07/27 01:32:09;;;;;;;16.17;10.98;;;;;;;16.00;91.13;99965.44;1707457;84;25598;-70
2022/07/27 01:34:35;;;;;;;13.90;10.18;;;;;;;16.04;91.37;99967.70;1707400;84;27477;-70
2022/07/27 01:37:03;;;;;;;12.68;10.25;;;;;;;16.08;91.27;99973.23;1707279;84;25731;-69
2022/07/27 01:39:30;;;;;;;11.15;8.63;;;;;;;16.11;91.41;99970.38;1707431;83;25588;-70
2022/07/27 01:41:58;;;;;;;13.68;9.83;;;;;;;16.13;91.51;99968.88;1707354;84;26299;-70
2022/07/27 01:44:24;;;;;;;12.80;8.85;;;;;;;16.16;91.53;99973.62;1707495;84;25565;-70
2022/07/27 01:46:51;;;;;;;12.15;8.95;;;;;;;16.20;91.64;99974.48;1707490;84;27340;-70
2022/07/27 01:49:17;;;;;;;12.23;8.95;;;;;;;16.23;91.75;99978.45;1707262;84;25630;-70
2022/07/27 01:51:44;;;;;;;11.12;8.85;;;;;;;16.24;91.71;99980.84;1707358;83;25628;-70
2022/07/27 01:54:10;;;;;;;11.35;9.65;;;;;;;16.29;92.02;99974.88;1707349;83;25617;-70
2022/07/27 01:56:37;;;;;;;11.15;8.60;;;;;;;16.30;91.88;99971.80;1707402;83;25424;-70
2022/07/27 01:59:03;;;;;;;17.45;8.45;;;;;;;16.33;91.89;99976.55;1707344;84;27419;-70
2022/07/27 02:01:30;;;;;;;14.20;8.20;;;;;;;16.37;91.87;99976.04;1707302;84;25692;-69
2022/07/27 02:03:57;;;;;;;16.77;8.33;;;;;;;16.39;91.87;99971.59;1689016;84;25571;-69
2022/07/27 02:06:24;;;;;;;14.43;7.85;;;;;;;16.39;91.69;99973.74;1707427;84;25679;-69
2022/07/27 02:08:50;;;;;;;13.80;7.28;;;;;;;16.42;91.59;99974.98;1707468;83;25586;-70
2022/07/27 02:14:01;;;;;;;10.75;7.55;;;;;;;16.40;91.53;99969.87;1707350;84;25631;-70
2022/07/27 02:16:27;;;;;;;10.93;7.17;;;;;;;16.42;91.36;99968.16;1707379;83;25628;-70
2022/07/27 02:18:53;;;;;;;7.12;6.25;;;;;;;16.41;91.18;99976.93;1707304;84;26352;-70
2022/07/27 02:21:20;;;;;;;9.65;6.78;;;;;;;16.39;91.32;99977.83;1707370;84;25574;-70
2022/07/27 02:23:47;;;;;;;12.88;6.80;;;;;;;16.38;91.40;99979.58;1707445;84;28111;-69
2022/07/27 02:26:14;;;;;;;10.18;6.28;;;;;;;16.36;91.14;99980.48;1706310;83;25572;-69
2022/07/27 02:28:41;;;;;;;8.08;7.08;;;;;;;16.35;91.08;99986.53;1702410;84;25633;-70
2022/07/27 02:31:07;;;;;;;8.58;6.50;;;;;;;16.32;91.03;99990.55;1702303;84;26368;-70
2022/07/27 02:33:33;;;;;;;6.50;5.83;;;;;;;16.28;90.89;99997.28;1702299;84;25621;-70
2022/07/27 02:36:00;;;;;;;7.40;5.97;;;;;;;16.23;90.90;99991.52;1702283;83;27358;-70
2022/07/27 02:38:27;;;;;;;8.65;5.90;;;;;;;16.22;90.83;99997.33;1702214;83;25653;-70
2022/07/27 02:40:55;;;;;;;9.40;4.72;;;;;;;16.18;90.79;99991.01;1702307;84;25573;-70
2022/07/27 02:43:21;;;;;;;6.67;5.10;;;;;;;16.15;90.52;99999.89;1702346;84;25709;-70
2022/07/27 02:45:47;;;;;;;8.53;4.95;;;;;;;16.09;90.50;99998.02;1702283;84;25462;-70
2022/07/27 02:48:14;;;;;;;10.28;4.67;;;;;;;16.06;90.59;100001.45;1702327;84;28030;-70
2022/07/27 02:50:40;;;;;;;6.35;4.78;;;;;;;16.01;90.57;99999.77;1702192;84;25598;-70
2022/07/27 02:53:06;;;;;;;8.80;4.83;;;;;;;15.97;90.39;100007.08;1702328;83;25426;-70
2022/07/27 02:55:32;;;;;;;9.05;4.90;;;;;;;15.95;90.48;100010.71;1702262;84;26348;-70
2022/07/27 02:57:58;;;;;;;8.70;4.62;;;;;;;15.92;90.58;100003.81;1702298;84;25588;-70
2022/07/27 03:00:25;;;;;;;7.75;4.42;;;;;;;15.92;90.67;100010.63;1702310;84;28007;-70
2022/07/27 03:02:51;;;;;;;5.78;4.30;;;;;;;15.90;90.73;100013.70;1702237;84;25657;-71
2022/07/27 03:05:18;;;;;;;8.68;4.33;;;;;;;15.90;90.77;100015.64;1702309;84;25442;-71
2022/07/27 03:07:44;;;;;;;6.72;4.20;;;;;;;15.89;90.73;100017.59;1702250;84;25695;-71
2022/07/27 03:10:11;;;;;;;11.28;4.15;;;;;;;15.89;90.92;100020.31;1702337;84;25473;-70
2022/07/27 03:12:37;;;;;;;4.35;3.95;;;;;;;15.87;90.82;100011.13;1702436;83;27418;-70
2022/07/27 03:15:05;;;;;;;7.42;3.70;;;;;;;15.89;91.00;100018.95;1702353;84;25419;-70
2022/07/27 03:17:31;;;;;;;6.30;4.12;;;;;;;15.90;91.26;100019.73;1702439;83;25580;-70
2022/07/27 03:19:58;;;;;;;50.00;46.65;;;;;;;15.91;91.36;100030.30;1702382;84;25684;-70
2022/07/27 03:22:24;;;;;;;6.08;4.30;;;;;;;15.91;91.55;100033.03;1702462;84;25636;-70
2022/07/27 03:24:50;;;;;;;5.90;4.12;;;;;;;15.94;91.61;100043.24;1702454;84;27718;-70
2022/07/27 03:27:16;;;;;;;6.40;4.33;;;;;;;15.96;91.60;100045.04;1702091;84;25738;-70
2022/07/27 03:29:42;;;;;;;79.07;73.92;;;;;;;15.98;91.67;100050.14;1682338;84;25508;-70
2022/07/27 03:32:08;;;;;;;77.05;72.05;;;;;;;15.99;91.76;100049.02;1702196;84;25675;-69
2022/07/27 03:34:34;;;;;;;77.55;72.85;;;;;;;16.01;91.81;100050.23;1702190;84;32373;-69
2022/07/27 03:37:00;;;;;;;77.27;72.35;;;;;;;16.05;91.97;100050.31;1702150;84;28177;-70
2022/07/27 03:39:27;;;;;;;9.33;5.65;;;;;;;16.08;91.88;100057.80;1702050;84;25769;-70
2022/07/27 03:41:53;;;;;;;10.32;4.17;;;;;;;16.11;91.67;100060.41;1702151;83;25602;-70
2022/07/27 03:44:19;;;;;;;6.47;3.55;;;;;;;16.11;91.58;100065.88;1702118;84;25542;-70
2022/07/27 03:46:48;;;;;;;5.80;3.37;;;;;;;16.11;91.40;100072.69;1702164;84;25624;-70
2022/07/27 03:49:14;;;;;;;23.50;21.82;;;;;;;16.09;91.25;100077.14;1702268;84;27326;-70
2022/07/27 03:51:41;;;;;;;9.33;3.90;;;;;;;16.08;91.43;100075.54;1702081;84;25365;-69
2022/07/27 03:54:07;;;;;;;5.20;3.17;;;;;;;16.12;91.60;100079.72;1702163;83;25557;-69
2022/07/27 03:56:33;;;;;;;4.05;3.00;;;;;;;16.12;90.94;100079.72;1702097;84;25638;-69
2022/07/27 03:59:00;;;;;;;4.97;3.17;;;;;;;16.12;90.82;100082.45;1702161;83;25605;-69
2022/07/27 04:01:26;;;;;;;5.33;3.10;;;;;;;16.11;90.76;100086.34;1702156;84;27395;-69
2022/07/27 04:03:52;;;;;;;5.25;2.80;;;;;;;16.11;90.94;100088.48;1702074;84;25462;-69
2022/07/27 04:06:18;;;;;;;9.43;4.10;;;;;;;16.14;91.00;100089.70;1702150;84;25407;-70
2022/07/27 04:08:45;;;;;;;6.95;3.80;;;;;;;16.15;91.21;100093.45;1702125;84;25657;-69
2022/07/27 04:11:11;;;;;;;15.95;5.10;;;;;;;16.18;91.39;100087.87;1702232;84;25522;-69
2022/07/27 04:13:37;;;;;;;6.20;4.08;;;;;;;16.20;91.50;100098.64;1702239;84;28113;-69
2022/07/27 04:16:04;;;;;;;10.05;4.87;;;;;;;16.22;91.53;100096.34;1702177;84;25593;-69
2022/07/27 04:18:30;;;;;;;10.10;4.55;;;;;;;16.23;91.46;100095.21;1702084;84;25621;-70
2022/07/27 04:20:58;;;;;;;4.45;4.03;;;;;;;16.25;91.65;100097.02;1702108;84;25601;-70
2022/07/27 04:23:24;;;;;;;12.13;5.65;;;;;;;16.27;91.48;100099.39;1702157;83;25641;-70
2022/07/27 04:25:50;;;;;;;6.12;4.28;;;;;;;16.29;91.73;100098.46;1702119;84;28056;-70
2022/07/27 04:28:16;;;;;;;7.83;5.03;;;;;;;16.32;91.69;100110.05;1701970;83;25738;-70
2022/07/27 04:30:43;;;;;;;11.35;5.20;;;;;;;16.36;91.55;100120.50;1702182;83;25542;-70
2022/07/27 04:33:09;;;;;;;10.13;5.50;;;;;;;16.37;91.54;100122.64;1702141;84;25869;-70
2022/07/27 04:35:35;;;;;;;9.10;5.08;;;;;;;16.39;91.53;100118.98;1702172;84;25485;-70
2022/07/27 04:38:01;;;;;;;6.50;4.70;;;;;;;16.41;91.28;100118.05;1702105;83;27418;-70
2022/07/27 04:40:33;;;;;;;9.80;4.53;;;;;;;16.43;91.38;100114.42;1702109;84;25580;-70
2022/07/27 04:43:02;;;;;;;4.80;4.33;;;;;;;16.44;91.33;100114.05;1702036;83;25503;-69
2022/07/27 04:45:28;;;;;;;8.28;4.55;;;;;;;16.47;90.95;100119.39;1702215;84;26248;-69
2022/07/27 04:47:55;;;;;;;6.92;4.65;;;;;;;16.50;90.62;100124.70;1702254;84;25409;-69
2022/07/27 04:50:22;;;;;;;6.12;3.85;;;;;;;16.52;90.71;100127.89;1702148;84;27314;-69
2022/07/27 04:52:48;;;;;;;5.42;3.70;;;;;;;16.52;90.61;100128.67;1702114;84;25542;-69
2022/07/27 04:55:15;;;;;;;8.13;3.87;;;;;;;16.54;90.23;100133.78;1702216;83;25617;-69
2022/07/27 04:57:43;;;;;;;6.08;3.95;;;;;;;16.56;90.01;100130.12;1702043;84;25638;-70
2022/07/27 05:00:11;;;;;;;4.33;3.37;;;;;;;16.57;89.89;100129.77;1702189;84;25463;-70
2022/07/27 05:02:41;;;;;;;6.45;3.70;;;;;;;16.61;90.21;100133.95;1702161;83;27327;-70
2022/07/27 05:05:08;;;;;;;5.80;3.42;;;;;;;16.68;90.56;100130.59;1701986;84;25872;-70
2022/07/27 05:07:35;;;;;;;5.78;3.30;;;;;;;16.75;90.38;100133.48;1702089;84;25629;-70
2022/07/27 05:10:04;;;;;;;7.10;4.45;;;;;;;16.80;89.89;100131.30;1702083;84;26311;-70
2022/07/27 05:12:30;;;;;;;7.30;3.67;;;;;;;16.81;89.11;100134.23;1702405;83;25423;-70
2022/07/27 05:14:56;;;;;;;7.30;2.62;;;;;;;16.82;88.55;100133.65;1702108;84;27323;-70
2022/07/27 05:17:22;;;;;;;5.35;2.50;;;;;;;16.83;88.27;100129.78;1702001;84;25648;-70
2022/07/27 05:19:48;;;;;;;5.50;2.62;;;;;;;16.85;87.64;100130.83;1702069;84;25573;-70
2022/07/27 05:22:14;;;;;;;4.70;2.27;;;;;;;16.85;87.27;100130.24;1702028;84;25638;-70
2022/07/27 05:24:41;;;;;;;11.20;2.80;;;;;;;16.87;87.08;100124.43;1702133;84;25426;-70
2022/07/27 05:27:07;;;;;;;7.15;2.35;;;;;;;16.91;87.36;100131.56;1702005;84;27352;-70
2022/07/27 05:29:33;;;;;;;8.68;2.17;;;;;;;16.95;87.19;100128.91;1702281;83;25711;-70
2022/07/27 05:32:04;;;;;;;5.92;2.10;;;;;;;16.99;86.99;100130.59;1702376;83;25582;-70
2022/07/27 05:34:31;;;;;;;4.95;2.00;;;;;;;17.04;86.52;100134.17;1702295;84;26301;-69
2022/07/27 05:36:57;;;;;;;4.15;1.67;;;;;;;17.07;85.88;100127.42;1702364;84;25606;-69
2022/07/27 05:39:23;;;;;;;4.33;1.92;;;;;;;17.13;85.45;100132.05;1702292;84;27338;-69
2022/07/27 05:41:49;;;;;;;7.17;1.65;;;;;;;17.18;84.84;100139.39;1702220;84;25846;-69
2022/07/27 05:44:15;;;;;;;7.45;1.80;;;;;;;17.26;84.56;100143.64;1702341;84;25447;-69
2022/07/27 05:46:41;;;;;;;6.75;1.62;;;;;;;17.35;84.65;100145.02;1702311;84;25627;-69
2022/07/27 05:49:08;;;;;;;4.72;2.15;;;;;;;17.45;84.85;100149.14;1702368;84;25419;-69
2022/07/27 05:51:34;;;;;;;5.62;2.47;;;;;;;17.54;84.07;100157.12;1702285;84;27500;-69
2022/07/27 05:54:04;;;;;;;3.08;1.42;;;;;;;17.60;83.35;100158.41;1702231;84;25597;-69
2022/07/27 05:56:30;;;;;;;5.03;1.50;;;;;;;17.68;83.03;100154.66;1702373;83;25382;-69
2022/07/27 05:58:57;;;;;;;4.47;1.75;;;;;;;17.75;81.79;100159.48;1702329;84;26262;-69
2022/07/27 06:01:23;;;;;;;17.42;15.93;;;;;;;17.82;81.85;100162.94;1702371;84;25415;-69
2022/07/27 06:03:51;;;;;;;15.48;14.40;;;;;;;17.87;81.01;100159.36;1702326;84;28055;-69
2022/07/27 06:09:02;;;;;;;74.50;69.92;;;;;;;17.95;79.88;100158.93;1702291;84;25383;-69
2022/07/27 06:11:29;;;;;;;73.20;68.92;;;;;;;18.03;79.97;100158.47;1702259;84;25698;-68
2022/07/27 06:13:55;;;;;;;4.08;1.70;;;;;;;18.14;79.82;100158.69;1702344;84;25607;-69
2022/07/27 06:16:23;;;;;;;6.10;1.40;;;;;;;18.24;79.64;100164.34;1702318;84;27306;-70
2022/07/27 06:18:51;;;;;;;2.50;1.17;;;;;;;18.34;79.35;100159.41;1702223;84;25374;-69
2022/07/27 06:21:18;;;;;;;3.83;1.42;;;;;;;18.40;77.92;100161.48;1702453;84;25518;-69
2022/07/27 06:23:47;;;;;;;4.15;1.15;;;;;;;18.47;77.63;100167.10;1702288;84;25669;-69
2022/07/27 06:26:13;;;;;;;2.77;1.30;;;;;;;18.55;77.43;100165.84;1702431;84;25463;-70
2022/07/27 06:28:39;;;;;;;1.57;1.10;;;;;;;18.65;76.79;100170.13;1705361;84;27417;-70
2022/07/27 06:31:06;;;;;;;6.28;2.37;;;;;;;18.79;77.32;100176.41;1689025;84;25652;-70
2022/07/27 06:33:33;;;;;;;7.12;2.10;;;;;;;18.95;77.41;100177.67;1707391;83;25656;-70
2022/07/27 06:36:00;;;;;;;8.88;1.98;;;;;;;19.14;77.05;100172.66;1707362;84;25675;-70
2022/07/27 06:38:28;;;;;;;3.77;1.27;;;;;;;19.34;76.36;100172.52;1707373;84;25656;-70
2022/07/27 06:40:55;;;;;;;3.22;1.37;;;;;;;19.54;75.34;100171.81;1707302;83;27622;-70
2022/07/27 06:43:25;;;;;;;3.98;1.30;;;;;;;19.71;74.45;100178.68;1707347;83;25588;-69
2022/07/27 06:45:53;;;;;;;7.33;1.20;;;;;;;19.85;72.78;100179.45;1707420;84;25609;-70
2022/07/27 06:48:20;;;;;;;4.72;1.00;;;;;;;20.04;72.43;100187.53;1707528;84;26325;-70
2022/07/27 06:50:48;;;;;;;6.47;1.42;;;;;;;20.26;71.75;100174.00;1707592;84;25433;-71
2022/07/27 06:53:14;;;;;;;4.03;1.17;;;;;;;20.50;71.01;100172.67;1707564;83;27297;-70
2022/07/27 06:55:41;;;;;;;8.05;1.25;;;;;;;20.72;70.14;100168.14;1707508;83;25572;-70
2022/07/27 06:58:07;;;;;;;3.45;1.12;;;;;;;20.94;67.99;100168.30;1707525;83;25609;-70
2022/07/27 07:00:34;;;;;;;4.25;1.25;;;;;;;21.14;67.78;100173.73;1707530;84;25665;-71
2022/07/27 07:03:04;;;;;;;4.47;1.05;;;;;;;21.36;66.88;100169.14;1707576;84;25424;-71
2022/07/27 07:05:33;;;;;;;5.37;0.98;;;;;;;21.56;64.36;100164.76;1707571;83;27325;-71
2022/07/27 07:08:00;;;;;;;;;;;;;;;21.70;62.95;100171.68;1710050;84;25695;-71
2022/07/27 07:10:27;;;;;;;3.75;0.90;;;;;;;21.87;62.70;100162.50;1707573;84;25562;-71
2022/07/27 07:12:54;;;;;;;4.03;1.15;;;;;;;22.09;61.46;100170.23;1707490;84;25823;-71
2022/07/27 07:15:23;;;;;;;5.90;1.10;;;;;;;22.32;62.38;100169.31;1707564;84;25564;-71
2022/07/27 07:17:49;;;;;;;3.95;1.02;;;;;;;22.65;61.63;100165.19;1707664;84;28033;-71
2022/07/27 07:20:16;;;;;;;4.45;0.98;;;;;;;22.87;60.87;100169.49;1707431;84;25668;-71
2022/07/27 07:22:42;;;;;;;5.70;2.60;;;;;;;23.12;59.80;100170.06;1707528;83;25626;-71
2022/07/27 07:25:08;;;;;;;4.25;1.37;;;;;;;23.38;59.52;100166.63;1707566;83;25610;-72
2022/07/27 07:27:35;;;;;;;7.67;1.80;;;;;;;23.65;58.83;100168.30;1707435;84;25618;-72
2022/07/27 07:30:02;;;;;;;3.87;1.40;;;;;;;23.98;58.92;100166.21;1707543;84;27521;-72
2022/07/27 07:32:29;;;;;;;4.10;1.87;;;;;;;24.35;58.16;100174.46;1707471;84;25383;-70
2022/07/27 07:34:55;;;;;;;6.00;1.60;;;;;;;24.58;56.28;100178.05;1707531;83;25608;-71
2022/07/27 07:37:21;;;;;;;3.47;1.05;;;;;;;24.82;54.96;100170.72;1707433;84;25741;-71
2022/07/27 07:39:47;;;;;;;5.90;1.10;;;;;;;24.97;53.70;100168.61;1707477;83;25419;-70
2022/07/27 07:42:14;;;;;;;4.67;2.85;;;;;;;25.20;53.40;100169.95;1707471;84;27375;-70
2022/07/27 07:44:40;;;;;;;5.03;1.87;;;;;;;25.45;52.50;100173.85;1707358;84;25547;-70
2022/07/27 07:47:08;;;;;;;5.33;1.37;;;;;;;25.68;51.23;100171.19;1707476;84;25624;-71
2022/07/27 07:49:35;;;;;;;2.83;1.20;;;;;;;25.90;51.17;100166.76;1705805;84;25645;-70
2022/07/27 07:52:02;;;;;;;4.15;1.15;;;;;;;26.21;50.48;100159.19;1707502;84;25636;-70
2022/07/27 07:54:28;;;;;;;4.80;1.60;;;;;;;26.48;49.91;100162.54;1707482;84;27399;-70
2022/07/27 07:56:54;;;;;;;4.78;1.45;;;;;;;26.71;49.43;100167.93;1707380;84;25761;-71
2022/07/27 07:59:20;;;;;;;2.05;1.20;;;;;;;26.89;47.53;100169.02;1707486;84;25620;-71
2022/07/27 08:01:47;;;;;;;4.42;1.40;;;;;;;26.99;47.22;100172.97;1707478;83;25629;-71
2022/07/27 08:04:13;;;;;;;3.75;1.35;;;;;;;27.26;47.04;100169.89;1707542;84;25407;-71
2022/07/27 08:06:39;;;;;;;10.40;2.12;;;;;;;27.54;46.01;100175.52;1707522;84;27387;-71
2022/07/27 08:09:06;;;;;;;6.33;1.50;;;;;;;27.73;45.07;100170.53;1707378;84;25439;-71
2022/07/27 08:11:32;;;;;;;5.15;1.47;;;;;;;27.80;44.29;100170.20;1707442;84;25426;-71
2022/07/27 08:13:58;;;;;;;8.28;1.90;;;;;;;28.06;44.12;100174.01;1707414;83;25724;-71
2022/07/27 08:16:25;;;;;;;8.28;1.77;;;;;;;28.30;43.71;100176.83;1707498;84;25402;-71
2022/07/27 08:18:51;;;;;;;4.33;1.62;;;;;;;28.55;43.27;100172.67;1707396;84;27011;-71
2022/07/27 08:21:17;;;;;;;5.37;1.60;;;;;;;28.76;42.63;100178.91;1707375;84;25573;-71
2022/07/27 08:23:43;;;;;;;4.85;1.40;;;;;;;28.95;42.04;100173.84;1707459;84;25660;-71
2022/07/27 08:26:10;;;;;;;3.30;1.30;;;;;;;29.18;41.35;100177.01;1707419;84;26408;-71
2022/07/27 08:28:36;;;;;;;3.25;1.40;;;;;;;29.32;41.05;100173.06;1707404;84;25617;-71
2022/07/27 08:31:02;;;;;;;4.95;1.62;;;;;;;29.52;40.67;100178.45;1707474;84;27384;-71
2022/07/27 08:33:28;;;;;;;3.58;1.40;;;;;;;29.71;40.20;100173.93;1707399;84;25411;-71
2022/07/27 08:35:56;;;;;;;5.72;1.90;;;;;;;29.93;39.51;100174.69;1707459;84;25543;-71
2022/07/27 08:38:22;;;;;;;3.92;2.02;;;;;;;30.17;39.28;100177.91;1707429;83;25579;-71
2022/07/27 08:40:49;;;;;;;5.58;1.55;;;;;;;30.35;38.65;100176.75;1707507;83;25596;-71
2022/07/27 08:43:18;;;;;;;3.42;1.37;;;;;;;30.61;38.62;100178.73;1707467;84;27282;-71
2022/07/27 08:45:51;;;;;;;3.92;2.08;;;;;;;30.89;38.21;100171.39;1707464;83;25600;-71
2022/07/27 08:48:17;;;;;;;6.17;1.75;;;;;;;31.23;38.24;100172.62;1706507;83;25625;-71
2022/07/27 08:50:48;;;;;;;3.55;1.40;;;;;;;31.50;37.39;100176.23;1707423;83;25677;-71
2022/07/27 08:53:15;;;;;;;4.60;1.75;;;;;;;31.63;36.37;100169.92;1707459;84;25455;-71
2022/07/27 08:55:44;;;;;;;2.67;1.35;;;;;;;31.75;35.65;100174.50;1707446;83;27331;-71
2022/07/27 08:58:13;;;;;;;6.58;1.42;;;;;;;31.91;35.13;100180.46;1707454;83;25603;-71
2022/07/27 09:00:47;;;;;;;3.33;1.42;;;;;;;31.91;35.09;100185.45;1707403;83;25585;-71
2022/07/27 09:03:16;;;;;;;5.42;1.32;;;;;;;31.93;34.67;100196.19;1707425;84;25612;-70
2022/07/27 09:05:47;;;;;;;4.28;1.70;;;;;;;31.86;33.81;100183.26;1707432;84;25497;-69
2022/07/27 09:10:47;;;;;;;7.33;2.25;;;;;;;32.21;33.78;100190.09;1821825;77;25437;-71
2022/07/27 09:13:30;;;;;;;4.40;1.70;;;;;;;32.28;33.94;100193.22;1711359;83;25459;-70
2022/07/27 09:16:00;;;;;;;5.97;1.37;;;;;;;32.38;33.95;100185.78;1737061;82;27528;-70
2022/07/27 09:18:32;;;;;;;3.08;1.32;;;;;;;32.58;33.47;100180.39;1717091;83;25606;-70
2022/07/27 09:21:21;;;;;;;5.55;1.67;;;;;;;32.79;32.59;100191.32;1737046;82;25413;-71
2022/07/27 09:23:54;;;;;;;4.35;1.30;;;;;;;32.79;31.74;100199.72;1736966;82;25625;-71
2022/07/27 09:26:24;;;;;;;2.87;1.35;;;;;;;32.66;32.19;100190.08;1718091;83;25577;-71
2022/07/27 09:28:57;;;;;;;2.02;1.30;;;;;;;32.76;32.38;100183.88;1747455;82;27481;-71
2022/07/27 09:31:24;;;;;;;3.15;1.72;;;;;;;32.76;32.38;100183.88;1736928;82;25447;-71
2022/07/27 09:33:54;;;;;;;3.65;1.40;;;;;;;33.04;31.41;100190.24;1718045;83;25436;-71
2022/07/27 09:36:25;;;;;;;4.15;1.40;;;;;;;32.94;30.74;100191.48;1730511;82;25392;-71
2022/07/27 09:39:02;;;;;;;4.62;1.50;;;;;;;32.53;30.87;100204.16;1718054;83;25403;-71
2022/07/27 09:41:48;;;;;;;6.40;1.60;;;;;;;32.15;31.06;100199.72;1732486;82;28296;-70
2022/07/27 09:44:16;;;;;;;5.65;1.70;;;;;;;32.32;30.70;100192.47;1736938;82;25873;-70
2022/07/27 09:46:45;;;;;;;4.50;1.80;;;;;;;32.33;30.98;100201.01;1736988;82;25627;-70
2022/07/27 09:49:33;;;;;;;5.37;1.50;;;;;;;32.42;31.00;100198.25;1717958;83;25676;-70
2022/07/27 09:52:02;;;;;;;3.03;1.17;;;;;;;32.54;30.88;100199.37;1737261;82;25580;-70
2022/07/27 09:54:45;;;;;;;4.10;1.50;;;;;;;32.23;31.07;100201.59;1736964;82;28212;-71
2022/07/27 09:57:12;;;;;;;3.72;1.35;;;;;;;32.18;29.68;100203.00;1736877;82;25533;-70
2022/07/27 09:59:39;;;;;;;4.05;1.50;;;;;;;31.64;29.95;100202.24;1736924;82;25534;-71
2022/07/27 10:02:06;;;;;;;5.28;1.10;;;;;;;31.11;29.99;100202.17;1705656;82;25602;-70
2022/07/27 10:04:33;;;;;;;4.15;1.60;;;;;;;30.57;30.92;100212.34;1718059;83;25575;-70
2022/07/27 10:07:00;;;;;;;6.67;1.50;;;;;;;30.23;31.58;100212.39;1736991;82;27598;-70
2022/07/27 10:09:29;;;;;;;6.67;1.67;;;;;;;29.95;32.10;100202.30;1685389;83;25614;-70
2022/07/27 10:11:56;;;;;;;;;;;;;;;29.79;32.47;100208.73;1775824;80;25393;-70
2022/07/27 10:14:23;;;;;;;4.42;1.80;;;;;;;29.69;32.10;100209.80;1773585;80;25550;-70
2022/07/27 10:16:52;;;;;;;3.70;1.47;;;;;;;29.49;33.03;100206.41;1773147;80;25538;-70
2022/07/27 10:19:29;;;;;;;7.07;1.90;;;;;;;29.73;33.24;100193.77;1773217;80;28232;-70
2022/07/27 10:21:55;;;;;;;3.83;1.50;;;;;;;30.36;33.86;100197.09;1773586;79;25559;-70
2022/07/27 10:24:32;;;;;;;5.78;1.87;;;;;;;31.10;33.23;100204.78;1773951;80;25503;-70
2022/07/27 10:26:59;;;;;;;3.40;1.27;;;;;;;31.04;31.76;100209.38;1773173;80;25544;-69
2022/07/27 10:29:26;;;;;;;7.60;1.65;;;;;;;30.54;31.61;100205.63;1760473;80;25623;-71
2022/07/27 10:31:57;;;;;;;8.23;1.77;;;;;;;30.08;31.58;100205.08;1772699;80;28180;-69
2022/07/27 10:34:43;;;;;;;5.22;2.12;;;;;;;29.70;32.07;100207.19;1772918;80;25381;-69
2022/07/27 10:37:25;;;;;;;7.87;2.12;;;;;;;29.29;32.46;100208.76;1773028;80;25457;-69
2022/07/27 10:42:44;;;;;;;3.83;1.37;;;;;;;29.42;33.63;100206.80;1772127;80;25433;-70
2022/07/27 10:45:14;;;;;;;6.70;1.72;;;;;;;29.71;33.60;100189.27;1772647;80;27449;-70
2022/07/27 10:47:51;;;;;;;4.08;1.75;;;;;;;29.85;32.89;100199.81;1773482;79;25686;-70
2022/07/27 10:50:22;;;;;;;1.82;1.50;;;;;;;29.45;32.40;100204.34;1773780;80;25398;-68
2022/07/27 10:53:05;;;;;;;4.62;1.57;;;;;;;29.11;33.00;100208.42;1772655;79;25445;-69
2022/07/27 10:55:37;;;;;;;3.60;1.40;;;;;;;28.90;33.53;100210.56;1772827;80;25594;-70
2022/07/27 10:58:18;;;;;;;3.87;1.57;;;;;;;28.78;33.52;100209.89;1773677;79;27446;-68
2022/07/27 11:00:56;;;;;;;4.15;1.72;;;;;;;28.48;33.48;100206.98;1773656;80;25552;-71
2022/07/27 11:03:35;;;;;;;2.17;1.37;;;;;;;28.21;33.78;100209.22;1772580;80;25611;-69
2022/07/27 11:06:12;;;;;;;7.78;3.40;;;;;;;27.82;33.24;100201.92;1769920;79;25900;-69
2022/07/27 11:08:42;;;;;;;5.12;2.08;;;;;;;27.26;34.18;100207.37;1772160;80;25394;-69
2022/07/27 11:11:13;;;;;;;5.45;2.52;;;;;;;26.95;35.14;100207.53;1771631;80;28027;-69
2022/07/27 11:13:39;;;;;;;4.40;1.60;;;;;;;26.86;35.61;100212.86;1771526;80;25540;-70
2022/07/27 11:16:10;;;;;;;3.00;1.70;;;;;;;26.88;35.67;100219.55;1772572;80;25561;-70
2022/07/27 11:18:38;;;;;;;2.37;1.37;;;;;;;27.31;36.12;100209.68;1772960;79;25609;-69
2022/07/27 11:21:24;;;;;;;2.95;1.37;;;;;;;27.63;35.59;100199.94;1771360;81;25552;-69
2022/07/27 11:24:02;;;;;;;2.58;1.72;;;;;;;28.34;36.27;100198.98;1772840;80;27640;-70
2022/07/27 11:26:32;;;;;;;1.65;1.40;;;;;;;29.32;34.65;100200.12;1771468;80;25715;-69
2022/07/27 11:28:58;;;;;;;3.33;1.55;;;;;;;29.55;33.50;100197.69;1772978;80;25534;-70
2022/07/27 11:31:25;;;;;;;6.83;1.50;;;;;;;29.94;33.73;100189.58;1763034;80;25726;-71
2022/07/27 11:34:00;;;;;;;4.80;1.72;;;;;;;30.60;33.45;100189.11;1773278;79;25393;-70
2022/07/27 11:36:42;;;;;;;5.62;1.52;;;;;;;30.70;32.13;100192.16;1771482;80;27442;-69
2022/07/27 11:39:25;;;;;;;1.80;1.50;;;;;;;30.09;31.15;100198.28;1772075;80;25741;-69